Time;durP1;ratioP1;P1;durP2;ratioP2;P2;SDS_P1;SDS_P2;PMS_P1;PMS_P2;Temp;Humidity;BMP_temperature;BMP_pressure;BME280_temperature;BME280_humidity;BME280_pressure;Samples;Min_cycle;Max_cycle;Signal;HPM_P1;HPM_P2
2023/07/09 00:02:27;;;;;;;18.35;10.50;;;;;;;27.37;54.47;101607.06;4943451;28;20082;-79
2023/07/09 00:05:01;;;;;;;18.70;10.50;;;;;;;27.16;53.96;101577.44;4914978;28;20122;-81
2023/07/09 00:07:31;;;;;;;18.83;10.40;;;;;;;27.31;53.48;101610.69;4934241;28;20105;-80
2023/07/09 00:09:59;;;;;;;17.65;9.18;;;;;;;27.18;53.87;101591.69;4950542;28;20050;-80
2023/07/09 00:12:26;;;;;;;16.52;9.13;;;;;;;27.22;53.96;101603.84;4962414;28;20189;-80
2023/07/09 00:14:54;;;;;;;20.58;10.73;;;;;;;27.24;53.74;101597.13;4955622;28;20081;-80
2023/07/09 00:17:30;;;;;;;18.58;9.88;;;;;;;27.16;53.74;101599.25;4947277;28;20454;-80
2023/07/09 00:20:05;;;;;;;18.52;9.65;;;;;;;26.90;53.72;101546.66;4947984;28;20245;-81
2023/07/09 00:22:31;;;;;;;19.07;10.50;;;;;;;27.20;53.66;101595.06;4943854;28;20047;-79
2023/07/09 00:25:01;;;;;;;17.50;10.85;;;;;;;27.18;53.19;101587.06;4943592;28;20337;-80
2023/07/09 00:27:30;;;;;;;17.73;9.38;;;;;;;27.18;52.93;101580.78;4929935;28;20074;-79
2023/07/09 00:29:57;;;;;;;16.48;9.43;;;;;;;27.33;52.94;101605.00;4926929;28;20043;-81
2023/07/09 00:32:25;;;;;;;14.55;9.30;;;;;;;27.29;52.67;101593.72;4937944;28;20391;-79
2023/07/09 00:34:53;;;;;;;14.48;9.43;;;;;;;27.07;53.03;101571.44;4936310;28;20309;-79
2023/07/09 00:37:25;;;;;;;12.73;8.30;;;;;;;26.98;53.01;101554.53;4945676;28;20050;-82
2023/07/09 00:39:52;;;;;;;14.38;9.88;;;;;;;27.12;53.22;101573.50;4957186;28;20454;-79
2023/07/09 00:42:23;;;;;;;14.25;9.35;;;;;;;27.19;53.06;101587.94;4955360;28;20124;-80
2023/07/09 00:44:57;;;;;;;20.80;12.15;;;;;;;27.21;53.17;101591.25;4939405;28;20622;-80
2023/07/09 00:47:33;;;;;;;13.00;8.63;;;;;;;27.25;53.13;101589.75;4962047;28;20112;-79
2023/07/09 00:50:05;;;;;;;13.52;9.35;;;;;;;27.16;52.97;101582.88;4942173;28;20275;-80
2023/07/09 00:52:45;;;;;;;15.57;9.15;;;;;;;27.20;52.92;101573.25;4926561;28;20522;-82
2023/07/09 00:55:16;;;;;;;15.93;9.45;;;;;;;27.25;53.12;101593.31;4913940;28;20059;-80
2023/07/09 00:57:49;;;;;;;22.27;9.27;;;;;;;27.11;53.16;101560.94;4943876;28;20051;-81
2023/07/09 01:00:17;;;;;;;14.10;8.90;;;;;;;27.24;53.24;101580.75;4911726;28;20445;-81
2023/07/09 01:02:48;;;;;;;14.43;8.95;;;;;;;27.19;53.14;101566.97;4915305;28;20055;-82
2023/07/09 01:05:17;;;;;;;15.13;9.90;;;;;;;27.18;52.97;101551.63;4928048;28;20556;-80
2023/07/09 01:07:48;;;;;;;17.70;8.90;;;;;;;27.29;52.66;101591.00;4931629;28;20085;-80
2023/07/09 01:10:16;;;;;;;16.15;8.68;;;;;;;27.32;52.78;101596.00;4926508;28;20533;-79
2023/07/09 01:12:45;;;;;;;16.13;9.98;;;;;;;26.96;52.90;101543.03;4942494;28;20469;-81
2023/07/09 01:15:14;;;;;;;18.92;10.73;;;;;;;27.26;52.91;101599.63;4954874;28;20442;-80
2023/07/09 01:17:44;;;;;;;17.52;9.80;;;;;;;27.13;53.08;101580.63;4930821;28;20074;-80
2023/07/09 01:20:19;;;;;;;19.13;9.88;;;;;;;27.00;52.88;101563.31;4925709;28;20122;-80
2023/07/09 01:22:54;;;;;;;15.25;8.32;;;;;;;27.12;52.93;101584.41;4903815;28;20078;-81
2023/07/09 01:25:24;;;;;;;15.80;9.23;;;;;;;26.99;52.78;101572.56;4913376;29;20051;-79
2023/07/09 01:27:50;;;;;;;14.25;9.60;;;;;;;27.08;52.85;101582.09;4916831;28;20058;-80
2023/07/09 01:30:26;;;;;;;13.27;9.32;;;;;;;26.75;52.85;101543.41;4928204;28;20456;-81
2023/07/09 01:32:57;;;;;;;13.35;9.43;;;;;;;27.02;53.67;101577.56;4906714;28;20051;-81
2023/07/09 01:35:25;;;;;;;15.90;8.73;;;;;;;26.71;53.56;101534.84;4914375;28;20054;-81
2023/07/09 01:37:53;;;;;;;16.02;9.27;;;;;;;27.02;53.31;101580.28;4934480;28;20255;-81
2023/07/09 01:40:24;;;;;;;21.50;9.85;;;;;;;26.96;53.44;101567.53;4950673;28;20064;-82
2023/07/09 01:43:00;;;;;;;17.83;9.32;;;;;;;26.94;53.32;101579.72;4944631;28;20062;-80
2023/07/09 01:45:28;;;;;;;19.38;8.77;;;;;;;26.73;52.96;101534.63;4952404;28;20971;-81
2023/07/09 01:47:55;;;;;;;15.15;8.75;;;;;;;26.93;52.68;101570.72;4930225;28;20136;-79
2023/07/09 01:50:24;;;;;;;17.08;8.80;;;;;;;26.88;52.86;101570.56;4925532;28;20059;-81
2023/07/09 01:52:54;;;;;;;15.93;9.18;;;;;;;26.67;52.91;101540.94;4925905;29;20062;-80
2023/07/09 01:55:21;;;;;;;16.50;8.70;;;;;;;26.80;52.88;101571.66;4899877;29;20066;-81
2023/07/09 01:57:50;;;;;;;13.43;9.07;;;;;;;26.69;53.15;101556.00;4917310;28;20382;-82
2023/07/09 02:00:18;;;;;;;22.10;9.50;;;;;;;26.73;53.22;101573.59;4913524;28;20055;-81
2023/07/09 02:02:46;;;;;;;14.35;9.18;;;;;;;26.77;53.44;101573.97;4927529;28;20324;-80
2023/07/09 02:05:16;;;;;;;15.00;8.98;;;;;;;25.92;53.37;101430.03;4967617;28;20408;-81
2023/07/09 02:07:46;;;;;;;15.82;9.30;;;;;;;26.72;53.51;101563.75;4941314;28;20047;-78
2023/07/09 02:10:16;;;;;;;16.00;9.20;;;;;;;26.80;53.25;101574.38;4962676;28;20117;-82
2023/07/09 02:12:42;;;;;;;13.40;9.35;;;;;;;26.73;53.40;101570.03;4962078;28;20137;-81
2023/07/09 02:15:09;;;;;;;25.58;10.02;;;;;;;26.60;53.38;101552.75;4962397;28;20050;-82
2023/07/09 02:17:36;;;;;;;17.55;8.80;;;;;;;26.73;53.43;101578.22;4964741;28;20043;-80
2023/07/09 02:20:07;;;;;;;18.17;8.80;;;;;;;26.50;53.54;101562.41;4946458;28;20059;-80
2023/07/09 02:22:35;;;;;;;15.65;9.05;;;;;;;26.55;54.17;101582.50;4925783;28;20110;-81
2023/07/09 02:25:02;;;;;;;15.43;8.98;;;;;;;26.37;54.28;101563.31;4924929;28;20061;-80
2023/07/09 02:27:29;;;;;;;13.80;9.00;;;;;;;26.39;54.57;101583.81;4913273;28;20050;-81
2023/07/09 02:29:56;;;;;;;16.10;9.95;;;;;;;26.45;54.87;101587.56;4922926;28;20083;-80
2023/07/09 02:32:27;;;;;;;16.23;9.88;;;;;;;26.55;55.30;101598.84;4913548;28;20055;-80
2023/07/09 02:34:55;;;;;;;17.90;9.93;;;;;;;26.59;55.11;101605.53;4932247;28;20411;-81
2023/07/09 02:37:25;;;;;;;15.32;10.25;;;;;;;26.56;55.46;101600.53;4955247;28;20049;-80
2023/07/09 02:39:54;;;;;;;16.95;11.10;;;;;;;26.22;55.67;101559.00;4970783;28;20167;-81
2023/07/09 02:42:22;;;;;;;18.35;9.63;;;;;;;26.52;55.67;101610.13;4959147;28;20457;-81
2023/07/09 02:44:50;;;;;;;23.67;10.55;;;;;;;26.35;56.24;101592.63;4960438;28;20100;-81
2023/07/09 02:47:17;;;;;;;16.58;10.48;;;;;;;26.38;56.33;101622.13;4956688;28;20046;-80
2023/07/09 02:49:43;;;;;;;18.95;10.00;;;;;;;25.84;56.32;101544.47;4949751;28;20384;-80
2023/07/09 02:52:10;;;;;;;19.77;10.52;;;;;;;26.08;56.29;101595.47;4940569;28;20562;-81
2023/07/09 02:54:37;;;;;;;14.93;10.75;;;;;;;26.17;56.98;101618.69;4959772;28;20050;-82
2023/07/09 02:57:04;;;;;;;16.35;10.60;;;;;;;25.57;57.10;101536.41;4954292;28;20066;-81
2023/07/09 02:59:32;;;;;;;20.25;10.40;;;;;;;26.18;57.47;101636.66;4960981;28;20637;-80
2023/07/09 03:02:00;;;;;;;22.38;11.57;;;;;;;26.07;57.23;101612.88;4964224;28;20065;-80
2023/07/09 03:04:26;;;;;;;17.58;11.65;;;;;;;26.00;57.33;101612.06;4958043;28;20360;-80
2023/07/09 03:06:53;;;;;;;16.55;10.68;;;;;;;25.86;57.66;101583.22;4948419;28;20042;-81
2023/07/09 03:09:23;;;;;;;19.08;11.55;;;;;;;26.07;57.64;101631.06;4949409;28;20544;-80
2023/07/09 03:11:49;;;;;;;17.52;10.50;;;;;;;25.95;57.78;101614.59;4935379;28;20056;-81
2023/07/09 03:14:22;;;;;;;26.25;12.23;;;;;;;25.96;57.73;101630.69;4917233;28;20551;-79
2023/07/09 03:16:49;;;;;;;19.23;11.82;;;;;;;25.92;58.13;101629.41;4944646;28;20104;-79
2023/07/09 03:19:16;;;;;;;19.63;11.77;;;;;;;25.83;58.17;101617.09;4932077;28;20483;-80
2023/07/09 03:21:42;;;;;;;18.38;11.30;;;;;;;25.97;58.03;101645.97;4932739;28;20043;-79
2023/07/09 03:24:11;;;;;;;22.02;11.57;;;;;;;25.94;58.26;101648.25;4933273;28;20086;-80
2023/07/09 03:26:38;;;;;;;14.95;10.75;;;;;;;25.88;58.38;101630.09;4940761;28;20121;-80
2023/07/09 03:29:07;;;;;;;20.48;11.18;;;;;;;25.88;58.69;101636.34;4938979;28;20054;-80
2023/07/09 03:31:34;;;;;;;18.90;11.68;;;;;;;25.86;58.54;101643.88;4928302;28;20095;-80
2023/07/09 03:34:02;;;;;;;23.45;11.77;;;;;;;25.72;58.80;101634.06;4928640;28;20046;-81
2023/07/09 03:36:30;;;;;;;24.95;11.35;;;;;;;25.74;59.31;101649.09;4960494;28;20050;-80
2023/07/09 03:38:57;;;;;;;18.02;10.20;;;;;;;25.61;59.24;101635.53;4955971;28;20057;-79
2023/07/09 03:41:24;;;;;;;23.85;10.65;;;;;;;25.70;59.10;101650.56;4955827;28;20056;-81
2023/07/09 03:43:53;;;;;;;19.17;10.82;;;;;;;25.59;59.29;101630.31;4958068;28;20062;-79
2023/07/09 03:46:20;;;;;;;20.38;11.30;;;;;;;25.42;59.25;101620.09;4977203;28;20129;-80
2023/07/09 03:48:47;;;;;;;18.65;10.80;;;;;;;25.26;59.26;101605.03;4956923;28;20312;-80
2023/07/09 03:51:14;;;;;;;20.38;11.85;;;;;;;25.19;59.38;101596.03;4937011;28;20237;-82
2023/07/09 03:53:41;;;;;;;19.80;11.38;;;;;;;25.25;59.61;101620.50;4926918;28;20134;-81
2023/07/09 03:56:08;;;;;;;19.70;10.00;;;;;;;24.87;59.61;101569.47;4926295;28;20106;-82
2023/07/09 03:58:35;;;;;;;21.10;10.68;;;;;;;25.16;59.39;101621.72;4922960;28;20102;-82
2023/07/09 04:01:02;;;;;;;26.05;10.77;;;;;;;25.12;59.40;101615.88;4919755;29;20417;-82
2023/07/09 04:03:32;;;;;;;18.67;9.38;;;;;;;25.36;58.95;101646.22;4921558;28;20067;-81
2023/07/09 04:05:59;;;;;;;18.23;10.35;;;;;;;24.78;58.78;101551.69;4937328;28;20050;-81
2023/07/09 04:08:26;;;;;;;21.05;10.07;;;;;;;25.15;58.60;101593.72;4936054;28;20054;-81
2023/07/09 04:10:56;;;;;;;15.05;9.07;;;;;;;25.43;58.25;101632.63;4979096;28;20108;-82
2023/07/09 04:13:24;;;;;;;21.15;9.77;;;;;;;25.43;57.96;101629.91;4951089;28;20047;-81
2023/07/09 04:15:51;;;;;;;14.88;8.27;;;;;;;25.47;57.76;101633.88;4958121;28;20140;-81
2023/07/09 04:18:18;;;;;;;15.20;9.25;;;;;;;25.56;57.53;101648.94;4974059;28;20108;-81
2023/07/09 04:20:49;;;;;;;14.38;9.38;;;;;;;25.51;57.71;101640.56;4914294;28;20118;-81
2023/07/09 04:23:17;;;;;;;17.70;9.02;;;;;;;25.55;57.95;101637.19;4933796;28;20135;-81
2023/07/09 04:25:43;;;;;;;15.88;8.95;;;;;;;25.38;57.55;101609.63;4935430;28;20494;-81
2023/07/09 04:28:10;;;;;;;17.40;9.85;;;;;;;25.63;57.65;101638.88;4965110;28;20123;-82
2023/07/09 04:30:37;;;;;;;14.57;8.73;;;;;;;25.55;57.41;101620.06;4925505;28;20272;-82
2023/07/09 04:33:09;;;;;;;14.93;9.65;;;;;;;25.68;57.54;101649.97;4912405;28;20043;-81
2023/07/09 04:35:36;;;;;;;15.90;8.57;;;;;;;25.68;56.97;101640.94;4951685;28;20086;-80
2023/07/09 04:38:03;;;;;;;14.77;9.07;;;;;;;25.58;56.76;101619.63;4935712;28;20247;-81
2023/07/09 04:40:30;;;;;;;18.95;8.95;;;;;;;25.75;56.56;101645.34;4970483;28;20050;-81
2023/07/09 04:43:02;;;;;;;17.58;9.70;;;;;;;25.89;56.11;101646.19;4960516;28;20065;-81
2023/07/09 04:45:38;;;;;;;16.08;9.45;;;;;;;25.66;55.65;101605.84;4915102;28;20062;-82
2023/07/09 04:48:11;;;;;;;19.92;9.05;;;;;;;25.88;56.21;101638.25;4930611;28;20466;-80
2023/07/09 04:50:37;;;;;;;13.50;9.13;;;;;;;25.88;56.13;101628.19;4935061;28;20051;-82
2023/07/09 04:53:04;;;;;;;14.70;8.98;;;;;;;26.05;55.97;101650.34;4921047;28;20540;-81
2023/07/09 04:55:31;;;;;;;13.50;8.05;;;;;;;25.99;55.74;101634.84;4959228;28;20086;-80
2023/07/09 04:57:59;;;;;;;18.45;8.88;;;;;;;26.04;55.61;101634.22;4958045;28;20054;-80
2023/07/09 05:00:31;;;;;;;16.27;9.45;;;;;;;26.12;55.63;101648.44;4943360;28;20287;-81
2023/07/09 05:03:04;;;;;;;18.02;9.27;;;;;;;26.18;55.05;101641.28;4940985;28;20576;-81
2023/07/09 05:05:33;;;;;;;15.50;9.05;;;;;;;25.84;54.65;101569.78;4946938;28;20565;-81
2023/07/09 05:08:00;;;;;;;15.05;8.15;;;;;;;26.34;55.26;101653.59;4923072;28;20466;-81
2023/07/09 05:10:27;;;;;;;17.45;9.00;;;;;;;26.34;55.42;101648.97;4924756;28;20136;-81
2023/07/09 05:12:55;;;;;;;21.40;9.82;;;;;;;26.27;56.05;101628.28;4933770;28;20306;-80
2023/07/09 05:15:27;;;;;;;19.15;9.13;;;;;;;26.29;56.39;101634.31;4915381;28;20054;-80
2023/07/09 05:17:55;;;;;;;19.10;9.82;;;;;;;26.44;55.13;101651.22;4937313;28;20050;-79
2023/07/09 05:20:23;;;;;;;16.10;8.88;;;;;;;26.62;55.18;101673.16;4960698;28;20179;-81
2023/07/09 05:22:49;;;;;;;17.00;9.32;;;;;;;26.55;54.99;101658.72;4905348;28;20332;-79
2023/07/09 05:25:16;;;;;;;18.90;9.50;;;;;;;25.93;55.42;101540.50;4911073;28;20460;-80
2023/07/09 05:27:45;;;;;;;20.52;10.07;;;;;;;26.68;54.56;101646.09;4917605;28;20058;-82
2023/07/09 05:30:12;;;;;;;14.60;9.02;;;;;;;26.84;54.80;101661.94;4921940;28;20396;-81
2023/07/09 05:32:39;;;;;;;18.75;9.65;;;;;;;26.83;54.14;101652.94;4949819;28;20385;-81
2023/07/09 05:35:06;;;;;;;15.77;8.85;;;;;;;27.02;54.20;101678.38;4928115;28;20050;-81
2023/07/09 05:37:35;;;;;;;18.48;9.43;;;;;;;26.77;54.46;101628.44;4908425;28;20137;-81
2023/07/09 05:40:04;;;;;;;17.17;10.13;;;;;;;27.00;54.65;101658.69;4953768;28;20058;-79
2023/07/09 05:42:32;;;;;;;15.65;9.55;;;;;;;27.13;54.17;101670.56;4951386;28;20344;-80
2023/07/09 05:45:03;;;;;;;14.13;8.90;;;;;;;27.19;54.03;101664.25;4934695;28;20054;-81
2023/07/09 05:47:33;;;;;;;19.27;9.45;;;;;;;27.26;53.37;101673.22;4945691;28;20051;-80
2023/07/09 05:50:03;;;;;;;14.30;8.88;;;;;;;27.22;53.45;101663.81;4946724;28;20416;-80
2023/07/09 05:52:30;;;;;;;12.15;8.60;;;;;;;27.14;53.35;101639.50;4903958;28;20312;-79
2023/07/09 05:54:57;;;;;;;16.25;9.45;;;;;;;27.34;52.38;101662.03;4932888;28;20046;-82
2023/07/09 05:57:23;;;;;;;13.00;8.10;;;;;;;27.04;53.12;101601.84;4957812;28;20078;-80
2023/07/09 05:59:50;;;;;;;12.75;8.32;;;;;;;27.61;52.13;101689.91;4966891;28;20054;-81
2023/07/09 06:02:20;;;;;;;15.10;9.80;;;;;;;27.70;52.01;101687.75;4953699;28;20357;-81
2023/07/09 06:04:49;;;;;;;19.92;10.20;;;;;;;27.49;51.82;101646.16;4967413;28;20050;-81
2023/07/09 06:07:18;;;;;;;21.33;9.77;;;;;;;27.45;51.41;101642.25;4957820;28;20577;-80
2023/07/09 06:09:45;;;;;;;22.13;9.32;;;;;;;27.77;51.66;101693.13;4955462;28;20137;-81
2023/07/09 06:12:15;;;;;;;20.88;9.57;;;;;;;27.80;51.67;101695.41;4947160;28;20358;-82
2023/07/09 06:14:42;;;;;;;16.90;10.15;;;;;;;27.82;52.09;101696.88;4953205;28;20054;-80
2023/07/09 06:17:12;;;;;;;16.92;10.20;;;;;;;27.81;51.70;101689.72;4961333;28;20449;-80
2023/07/09 06:19:39;;;;;;;17.23;9.55;;;;;;;27.77;51.61;101674.88;4932954;28;20358;-81
2023/07/09 06:22:06;;;;;;;21.70;9.98;;;;;;;27.90;51.29;101688.41;4935526;28;20048;-82
2023/07/09 06:24:32;;;;;;;12.77;9.18;;;;;;;27.92;51.54;101680.81;4940469;28;20368;-81
2023/07/09 06:26:59;;;;;;;13.55;9.27;;;;;;;28.09;50.82;101702.06;4921841;28;20742;-80
2023/07/09 06:29:32;;;;;;;20.02;9.68;;;;;;;28.08;50.67;101698.50;4917567;28;20312;-81
2023/07/09 06:32:06;;;;;;;15.40;10.00;;;;;;;28.02;50.41;101679.47;4931397;28;20057;-81
2023/07/09 06:34:33;;;;;;;14.93;9.40;;;;;;;28.18;50.71;101708.06;4955490;28;20564;-81
2023/07/09 06:37:00;;;;;;;17.20;9.95;;;;;;;28.15;50.44;101698.44;4938410;28;20306;-79
2023/07/09 06:39:27;;;;;;;14.00;9.43;;;;;;;28.07;50.57;101682.34;4961483;28;20058;-79
2023/07/09 06:41:53;;;;;;;19.15;9.38;;;;;;;27.86;50.26;101643.50;4955594;28;20142;-80
2023/07/09 06:44:20;;;;;;;15.75;9.98;;;;;;;28.25;50.02;101700.63;4960635;28;20208;-80
2023/07/09 06:46:48;;;;;;;18.75;9.65;;;;;;;28.36;49.52;101699.88;4954381;28;20239;-81
2023/07/09 06:49:18;;;;;;;22.65;10.32;;;;;;;28.13;49.71;101687.75;4932483;28;20058;-80
2023/07/09 06:51:45;;;;;;;17.25;9.98;;;;;;;28.23;50.03;101676.31;4913444;28;20138;-78
2023/07/09 06:54:15;;;;;;;18.02;10.40;;;;;;;28.27;49.44;101669.28;4918364;28;20077;-80
2023/07/09 06:56:42;;;;;;;18.75;9.57;;;;;;;28.48;49.61;101709.00;4931164;28;20074;-81
2023/07/09 06:59:09;;;;;;;15.38;9.48;;;;;;;27.89;50.50;101618.53;4955737;28;20126;-79
2023/07/09 07:01:36;;;;;;;20.98;11.35;;;;;;;28.22;50.13;101657.41;4956478;28;20047;-79
2023/07/09 07:04:03;;;;;;;20.25;10.32;;;;;;;28.36;50.00;101680.75;4947008;28;20323;-79
2023/07/09 07:06:30;;;;;;;23.30;11.10;;;;;;;28.50;49.58;101686.94;4949572;28;20230;-79
2023/07/09 07:08:58;;;;;;;18.05;10.90;;;;;;;28.45;49.39;101676.69;4954880;28;20105;-80
2023/07/09 07:11:30;;;;;;;16.25;10.80;;;;;;;28.16;49.35;101620.94;4951457;28;20057;-80
2023/07/09 07:13:57;;;;;;;17.40;9.75;;;;;;;28.66;49.56;101694.47;4936034;28;20145;-79
2023/07/09 07:16:24;;;;;;;15.18;9.65;;;;;;;28.48;49.41;101662.56;4934535;28;20062;-80
2023/07/09 07:18:51;;;;;;;18.27;9.93;;;;;;;28.77;49.22;101696.44;4942222;28;20263;-80
2023/07/09 07:21:18;;;;;;;17.08;9.95;;;;;;;28.73;49.12;101676.09;4933456;28;20086;-79
2023/07/09 07:23:50;;;;;;;13.38;9.82;;;;;;;28.54;48.56;101639.78;4922003;28;20413;-80
2023/07/09 07:26:25;;;;;;;17.27;10.70;;;;;;;28.73;48.96;101681.56;4925439;28;20050;-82
2023/07/09 07:28:55;;;;;;;19.52;10.57;;;;;;;28.85;49.29;101694.44;4899540;28;20618;-81
2023/07/09 07:31:22;;;;;;;16.63;11.15;;;;;;;28.81;47.74;101665.91;4915157;28;20491;-79
2023/07/09 07:33:50;;;;;;;23.90;12.43;;;;;;;28.98;47.41;101695.09;4921368;28;20053;-80
2023/07/09 07:36:20;;;;;;;14.70;9.50;;;;;;;29.03;47.00;101697.13;4951782;28;20046;-80
2023/07/09 07:38:57;;;;;;;18.67;9.98;;;;;;;28.96;48.43;101685.47;4934014;28;20124;-79
2023/07/09 07:41:25;;;;;;;15.48;10.02;;;;;;;28.99;47.98;101684.97;4950732;28;20058;-81
2023/07/09 07:43:52;;;;;;;17.23;10.15;;;;;;;29.03;47.69;101688.94;4934360;28;20047;-80
2023/07/09 07:46:18;;;;;;;16.83;8.95;;;;;;;28.98;48.66;101666.91;4935052;28;20050;-80
2023/07/09 07:48:46;;;;;;;15.32;9.18;;;;;;;29.09;48.06;101696.22;4946181;28;20378;-81
2023/07/09 07:51:13;;;;;;;18.88;11.07;;;;;;;29.11;46.80;101672.22;4952606;28;20077;-82
2023/07/09 07:53:40;;;;;;;18.85;9.75;;;;;;;29.09;48.05;101674.34;4951864;28;20054;-81
2023/07/09 07:56:07;;;;;;;18.25;10.27;;;;;;;29.27;48.04;101680.78;4952941;28;20322;-82
2023/07/09 07:58:34;;;;;;;12.48;9.10;;;;;;;29.29;48.55;101684.94;4955524;28;20175;-83
2023/07/09 08:01:01;;;;;;;19.70;11.40;;;;;;;29.31;47.42;101665.59;4956086;28;20050;-81
2023/07/09 08:03:28;;;;;;;18.25;10.75;;;;;;;29.37;46.28;101657.28;4945678;28;20054;-80
2023/07/09 08:05:55;;;;;;;16.92;9.90;;;;;;;29.49;46.64;101676.44;4951180;28;20483;-81
2023/07/09 08:08:26;;;;;;;21.05;10.65;;;;;;;29.45;46.67;101669.75;4915161;28;20057;-81
2023/07/09 08:11:01;;;;;;;19.70;10.90;;;;;;;29.10;47.13;101615.84;4910434;28;20058;-82
2023/07/09 08:13:28;;;;;;;14.48;10.40;;;;;;;29.43;46.90;101666.44;4936865;28;20058;-81
2023/07/09 08:15:54;;;;;;;17.95;11.23;;;;;;;29.54;46.29;101676.56;4943146;28;20141;-81
2023/07/09 08:18:30;;;;;;;16.73;10.35;;;;;;;29.59;46.67;101663.00;4940238;28;20282;-81
2023/07/09 08:21:01;;;;;;;17.67;10.23;;;;;;;29.74;46.89;101686.34;4955716;28;20057;-81
2023/07/09 08:23:29;;;;;;;16.25;11.25;;;;;;;29.82;46.17;101688.72;4961780;28;20050;-78
2023/07/09 08:26:02;;;;;;;28.90;11.55;;;;;;;29.87;46.56;101685.25;4965253;28;20100;-79
2023/07/09 08:28:30;;;;;;;14.93;10.82;;;;;;;29.52;46.66;101634.94;4933278;28;20375;-79
2023/07/09 08:31:00;;;;;;;22.63;10.43;;;;;;;29.43;47.23;101633.59;4955977;28;20513;-78
2023/07/09 08:33:28;;;;;;;22.23;11.23;;;;;;;29.78;47.26;101687.50;4946158;28;20054;-84
2023/07/09 08:35:55;;;;;;;17.67;10.35;;;;;;;29.89;47.48;101683.94;4940957;28;20058;-77
2023/07/09 08:38:22;;;;;;;20.40;11.30;;;;;;;29.71;45.75;101643.03;4967549;28;20506;-79
2023/07/09 08:40:57;;;;;;;14.10;10.48;;;;;;;29.93;45.34;101676.94;4954702;28;20576;-81
2023/07/09 08:43:30;;;;;;;15.80;10.45;;;;;;;29.65;45.91;101641.22;4943984;28;20042;-79
2023/07/09 08:46:23;;;;;;;19.13;11.73;;;;;;;29.98;46.89;101688.00;4959346;28;20485;-79
2023/07/09 08:48:58;;;;;;;20.73;11.95;;;;;;;29.92;45.89;101683.47;4948189;28;20337;-81
2023/07/09 08:51:37;;;;;;;13.40;9.95;;;;;;;30.02;46.80;101645.34;4955220;28;20054;-77
2023/07/09 08:54:09;;;;;;;21.10;10.80;;;;;;;29.86;46.73;101657.06;4960079;28;20369;-80
2023/07/09 08:56:36;;;;;;;19.02;11.05;;;;;;;30.18;45.18;101670.34;4930370;28;20105;-80
2023/07/09 08:59:03;;;;;;;19.02;10.68;;;;;;;30.20;46.52;101687.38;4946970;28;20845;-80
2023/07/09 09:01:39;;;;;;;17.90;9.90;;;;;;;30.06;47.23;101669.53;4937426;28;20040;-80
2023/07/09 09:04:25;;;;;;;15.80;11.02;;;;;;;30.10;47.09;101684.38;4923469;28;20055;-80
2023/07/09 09:07:11;;;;;;;19.40;11.70;;;;;;;30.10;46.82;101667.97;4930470;28;20494;-79
2023/07/09 09:09:53;;;;;;;18.70;10.30;;;;;;;30.21;47.38;101672.59;4953222;28;20050;-81
2023/07/09 09:12:25;;;;;;;18.52;9.50;;;;;;;30.16;46.99;101677.97;4956065;28;20553;-80
2023/07/09 09:15:00;;;;;;;20.58;11.93;;;;;;;30.15;46.48;101676.31;4950710;28;20058;-81
2023/07/09 09:17:29;;;;;;;14.38;10.45;;;;;;;30.27;47.37;101674.41;4962264;28;20259;-79
2023/07/09 09:20:04;;;;;;;20.92;10.98;;;;;;;30.22;46.72;101671.50;4962765;28;20092;-80
2023/07/09 09:23:10;;;;;;;17.63;9.60;;;;;;;30.24;47.25;101677.56;4964931;28;20129;-79
2023/07/09 09:25:42;;;;;;;24.55;11.07;;;;;;;29.85;46.13;101603.38;4968580;28;20334;-79
2023/07/09 09:28:14;;;;;;;20.83;12.18;;;;;;;30.15;45.66;101662.63;4956563;28;20092;-81
2023/07/09 09:30:40;;;;;;;19.40;11.95;;;;;;;30.28;45.92;101662.38;4962161;28;20489;-81
2023/07/09 09:33:11;;;;;;;17.83;11.18;;;;;;;30.52;43.19;101665.03;4950866;28;20751;-80
2023/07/09 09:35:49;;;;;;;16.80;10.82;;;;;;;30.64;45.62;101695.97;4935144;28;20137;-81
2023/07/09 09:38:22;;;;;;;21.30;11.75;;;;;;;30.71;44.01;101693.06;4952148;28;20478;-80
2023/07/09 09:40:49;;;;;;;17.30;11.02;;;;;;;30.85;44.93;101684.34;4958815;28;20042;-81
2023/07/09 09:43:23;;;;;;;20.27;12.50;;;;;;;30.84;44.02;101696.38;4954589;28;20403;-80
2023/07/09 09:45:50;;;;;;;19.92;11.48;;;;;;;31.01;42.90;101690.91;4951581;28;20343;-82
2023/07/09 09:48:28;;;;;;;15.18;11.63;;;;;;;30.88;44.44;101683.84;4954492;28;20524;-78
2023/07/09 09:51:00;;;;;;;16.00;11.40;;;;;;;30.96;43.26;101676.28;4943535;28;20054;-79
2023/07/09 09:53:37;;;;;;;20.27;12.35;;;;;;;31.01;42.69;101679.13;4947460;28;20294;-80
2023/07/09 09:56:06;;;;;;;15.38;10.65;;;;;;;30.69;43.66;101626.72;4947547;28;20069;-80
2023/07/09 09:58:33;;;;;;;21.65;10.65;;;;;;;30.95;44.30;101674.63;4963781;28;20285;-82
2023/07/09 10:01:01;;;;;;;17.73;10.43;;;;;;;31.10;44.39;101696.84;4951444;28;20726;-81
2023/07/09 10:03:36;;;;;;;18.00;11.18;;;;;;;31.07;43.38;101700.06;4946843;28;20058;-82
2023/07/09 10:06:15;;;;;;;19.02;10.65;;;;;;;31.04;44.31;101689.59;4957465;28;20047;-80
2023/07/09 10:09:02;;;;;;;20.05;11.52;;;;;;;31.19;42.54;101703.59;4933679;28;20334;-81
2023/07/09 10:11:46;;;;;;;17.15;10.88;;;;;;;31.33;43.99;101689.53;4946783;28;20046;-80
2023/07/09 10:15:12;;;;;;;17.98;11.75;;;;;;;31.15;43.78;101685.13;4968937;28;20061;-82
2023/07/09 10:17:48;;;;;;;19.35;12.02;;;;;;;31.24;43.10;101689.09;4904922;28;20046;-81
2023/07/09 10:20:25;;;;;;;16.58;11.35;;;;;;;31.42;43.21;101701.78;4967599;28;20058;-80
2023/07/09 10:23:21;;;;;;;16.48;11.55;;;;;;;31.59;41.69;101690.81;4957360;28;20478;-82
2023/07/09 10:25:54;;;;;;;19.15;10.73;;;;;;;30.77;41.25;101525.72;4976166;28;20046;-81
2023/07/09 10:28:52;;;;;;;17.42;11.35;;;;;;;31.82;41.74;101692.50;4953315;28;20632;-80
2023/07/09 10:31:46;;;;;;;15.77;10.68;;;;;;;31.84;42.85;101687.59;4957169;28;20053;-81
2023/07/09 10:34:16;;;;;;;12.98;9.95;;;;;;;31.86;42.63;101689.00;4943435;28;20497;-82
2023/07/09 10:36:48;;;;;;;17.45;11.35;;;;;;;31.67;42.50;101699.44;4939449;28;20144;-80
2023/07/09 10:39:32;;;;;;;13.43;10.23;;;;;;;31.64;43.02;101667.00;4963268;28;20080;-83
2023/07/09 10:42:01;;;;;;;16.73;10.55;;;;;;;31.46;41.34;101637.13;4938952;28;20095;-81
2023/07/09 10:44:36;;;;;;;16.98;10.10;;;;;;;32.04;43.04;101659.63;4960221;28;20050;-82
2023/07/09 10:47:36;;;;;;;15.88;10.70;;;;;;;32.05;42.29;101681.34;4962473;28;20677;-80
2023/07/09 10:50:27;;;;;;;18.17;11.25;;;;;;;31.54;43.28;101677.03;4956199;28;20146;-82
2023/07/09 10:53:00;;;;;;;17.08;10.85;;;;;;;31.14;43.88;101681.53;4956435;28;20353;-83
2023/07/09 10:55:38;;;;;;;16.10;10.85;;;;;;;30.93;44.48;101663.09;4950782;28;20046;-81
2023/07/09 10:58:27;;;;;;;23.15;11.48;;;;;;;30.92;44.29;101669.63;4967470;28;20114;-82
2023/07/09 11:00:54;;;;;;;17.88;12.00;;;;;;;30.80;42.74;101667.78;4944314;28;20050;-80
2023/07/09 11:03:53;;;;;;;19.42;12.55;;;;;;;30.97;42.79;101661.50;4955502;28;20078;-80
2023/07/09 11:06:34;;;;;;;18.80;10.55;;;;;;;31.50;43.39;101665.69;4947801;28;20596;-80
2023/07/09 11:09:04;;;;;;;16.88;10.02;;;;;;;31.66;42.98;101659.38;4938654;28;20047;-81
2023/07/09 11:11:38;;;;;;;19.10;10.70;;;;;;;31.35;43.26;101657.19;4939872;28;20355;-81
2023/07/09 11:14:16;;;;;;;17.85;11.63;;;;;;;30.97;42.94;101667.81;4954655;28;20050;-81
2023/07/09 11:16:47;;;;;;;15.55;10.80;;;;;;;30.97;44.12;101656.00;4940402;28;20296;-83
2023/07/09 11:19:20;;;;;;;18.25;11.70;;;;;;;30.91;44.04;101646.88;4926073;28;20071;-81
2023/07/09 11:22:07;;;;;;;16.13;10.25;;;;;;;31.23;43.74;101666.34;4944598;28;20042;-82
2023/07/09 11:25:10;;;;;;;22.95;12.25;;;;;;;31.03;42.14;101653.13;4946557;28;20268;-83
2023/07/09 11:27:56;;;;;;;16.35;10.65;;;;;;;31.59;42.57;101630.44;4958890;28;20077;-82
2023/07/09 11:30:27;;;;;;;15.07;10.80;;;;;;;31.11;42.72;101574.25;4926491;28;20407;-82
2023/07/09 11:32:56;;;;;;;;;;;;;;;31.37;43.31;101658.63;4954061;28;20046;-84